createdAt,value
2024-03-01T00:00:41.962Z,942.58
2024-03-01T00:01:41.915Z,942.59
2024-03-01T00:02:41.888Z,942.60
2024-03-01T00:03:41.806Z,942.58
2024-03-01T00:04:41.808Z,942.59
2024-03-01T00:05:41.825Z,942.59
2024-03-01T00:06:41.874Z,942.60
2024-03-01T00:07:41.851Z,942.63
2024-03-01T00:08:41.770Z,942.62
2024-03-01T00:09:41.736Z,942.60
2024-03-01T00:10:41.755Z,942.57
2024-03-01T00:11:41.701Z,942.56
2024-03-01T00:12:41.749Z,942.65
2024-03-01T00:13:41.711Z,942.65
2024-03-01T00:14:41.673Z,942.61
2024-03-01T00:15:41.643Z,942.58
2024-03-01T00:16:41.650Z,942.61
2024-03-01T00:17:41.661Z,942.62
2024-03-01T00:18:41.658Z,942.62
2024-03-01T00:19:41.599Z,942.56
2024-03-01T00:20:41.586Z,942.59
2024-03-01T00:21:41.589Z,942.55
2024-03-01T00:22:41.613Z,942.57
2024-03-01T00:23:41.543Z,942.53
2024-03-01T00:24:41.547Z,942.54
2024-03-01T00:25:41.524Z,942.53
2024-03-01T00:26:41.512Z,942.53
2024-03-01T00:27:41.490Z,942.56
2024-03-01T00:28:41.640Z,942.51
2024-03-01T00:29:41.486Z,942.48
2024-03-01T00:30:41.462Z,942.50
2024-03-01T00:31:41.452Z,942.52
2024-03-01T00:32:41.519Z,942.50
2024-03-01T00:33:41.429Z,942.44
2024-03-01T00:34:41.476Z,942.49
2024-03-01T00:35:41.397Z,942.49
2024-03-01T00:36:41.386Z,942.48
2024-03-01T00:37:41.397Z,942.53
2024-03-01T00:38:41.355Z,942.53
2024-03-01T00:39:41.337Z,942.47
2024-03-01T00:40:41.369Z,942.49
2024-03-01T00:41:41.311Z,942.51
2024-03-01T00:42:41.323Z,942.53
2024-03-01T00:43:41.308Z,942.51
2024-03-01T00:44:41.401Z,942.46
2024-03-01T00:45:41.253Z,942.50
2024-03-01T00:46:41.262Z,942.49
2024-03-01T00:47:41.250Z,942.47
2024-03-01T00:48:41.223Z,942.45
2024-03-01T00:49:41.203Z,942.48
2024-03-01T00:50:41.245Z,942.47
2024-03-01T00:51:41.189Z,942.47
2024-03-01T00:52:41.225Z,942.50
2024-03-01T00:53:41.162Z,942.45
2024-03-01T00:54:41.158Z,942.40
2024-03-01T00:55:41.143Z,942.34
2024-03-01T00:56:41.121Z,942.32
2024-03-01T00:57:41.126Z,942.27
2024-03-01T00:58:41.138Z,942.20
2024-03-01T00:59:41.079Z,942.22
2024-03-01T01:00:41.131Z,942.23
2024-03-01T01:01:41.140Z,942.17
2024-03-01T01:02:42.376Z,942.13
2024-03-01T01:03:41.050Z,942.16
2024-03-01T01:04:41.018Z,942.12
2024-03-01T01:05:41.000Z,942.14
2024-03-01T01:06:40.992Z,942.07
2024-03-01T01:07:41.029Z,942.09
2024-03-01T01:08:40.970Z,942.06
2024-03-01T01:09:40.938Z,942.06
2024-03-01T01:10:41.158Z,942.05
2024-03-01T01:11:40.933Z,942.01
2024-03-01T01:12:40.996Z,941.98
2024-03-01T01:13:40.942Z,942.04
2024-03-01T01:14:40.888Z,942.06
2024-03-01T01:15:40.881Z,942.05
2024-03-01T01:16:40.867Z,942.03
2024-03-01T01:17:40.846Z,941.98
2024-03-01T01:18:40.842Z,942.04
2024-03-01T01:19:40.850Z,942.07
2024-03-01T01:20:40.806Z,942.04
2024-03-01T01:21:40.780Z,942.05
2024-03-01T01:22:40.775Z,942.07
2024-03-01T01:23:40.785Z,942.00
2024-03-01T01:24:40.770Z,942.02
2024-03-01T01:25:40.772Z,941.99
2024-03-01T01:26:40.730Z,941.97
2024-03-01T01:27:40.702Z,942.01
2024-03-01T01:28:40.736Z,942.00
2024-03-01T01:29:40.679Z,942.01
2024-03-01T01:30:40.771Z,942.02
2024-03-01T01:31:40.752Z,942.00
2024-03-01T01:32:40.665Z,942.01
2024-03-01T01:33:40.684Z,941.99
2024-03-01T01:34:40.671Z,942.03
2024-03-01T01:35:40.659Z,942.00
2024-03-01T01:36:40.620Z,942.00
2024-03-01T01:37:40.569Z,941.94
2024-03-01T01:38:40.620Z,941.94
2024-03-01T01:39:40.608Z,941.92
2024-03-01T01:40:40.678Z,941.88
2024-03-01T01:41:40.585Z,941.88
2024-03-01T01:42:40.614Z,941.87
2024-03-01T01:43:40.595Z,941.86
2024-03-01T01:44:40.571Z,941.79
2024-03-01T01:45:40.478Z,941.78
2024-03-01T01:46:40.464Z,941.75
2024-03-01T01:47:40.480Z,941.75
2024-03-01T01:48:40.431Z,941.70
2024-03-01T01:49:40.466Z,941.71
2024-03-01T01:50:40.404Z,941.74
2024-03-01T01:51:40.392Z,941.66
2024-03-01T01:52:40.433Z,941.71
2024-03-01T01:53:40.368Z,941.66
2024-03-01T01:54:40.365Z,941.62
2024-03-01T01:55:40.389Z,941.63
2024-03-01T01:56:40.362Z,941.65
2024-03-01T01:57:40.310Z,941.60
2024-03-01T01:58:40.377Z,941.58
2024-03-01T01:59:40.298Z,941.55
2024-03-01T02:00:40.364Z,941.52
2024-03-01T02:01:40.399Z,941.55
2024-03-01T02:04:07.976Z,941.59
2024-03-01T02:04:13.327Z,941.54
2024-03-01T02:05:13.304Z,941.52
2024-03-01T02:06:13.303Z,941.55
2024-03-01T02:07:13.345Z,941.53
2024-03-01T02:08:13.299Z,941.54
2024-03-01T02:09:13.316Z,941.52
2024-03-01T02:10:13.281Z,941.49
2024-03-01T02:11:13.209Z,941.49
2024-03-01T02:12:13.260Z,941.47
2024-03-01T02:13:13.210Z,941.46
2024-03-01T02:14:13.188Z,941.45
2024-03-01T02:15:14.014Z,941.43
2024-03-01T02:16:13.230Z,941.39
2024-03-01T02:17:13.232Z,941.44
2024-03-01T02:18:13.136Z,941.42
2024-03-01T02:19:13.178Z,941.41
2024-03-01T02:20:13.108Z,941.42
2024-03-01T02:21:13.095Z,941.41
2024-03-01T02:22:13.134Z,941.41
2024-03-01T02:23:13.161Z,941.40
2024-03-01T02:24:13.054Z,941.42
2024-03-01T02:25:13.070Z,941.41
2024-03-01T02:26:13.033Z,941.41
2024-03-01T02:27:13.010Z,941.34
2024-03-01T02:28:13.079Z,941.34
2024-03-01T02:29:12.981Z,941.32
2024-03-01T02:30:12.976Z,941.36
2024-03-01T02:31:12.995Z,941.33
2024-03-01T02:32:12.957Z,941.27
2024-03-01T02:33:13.037Z,941.30
2024-03-01T02:34:12.919Z,941.26
2024-03-01T02:35:12.917Z,941.27
2024-03-01T02:36:12.884Z,941.27
2024-03-01T02:37:12.941Z,941.25
2024-03-01T02:38:12.854Z,941.28
2024-03-01T02:39:12.887Z,941.29
2024-03-01T02:40:12.946Z,941.27
2024-03-01T02:41:12.835Z,941.25
2024-03-01T02:42:13.033Z,941.25
2024-03-01T02:43:12.867Z,941.22
2024-03-01T02:44:12.784Z,941.23
2024-03-01T02:45:12.781Z,941.21
2024-03-01T02:46:12.851Z,941.18
2024-03-01T02:47:12.757Z,941.16
2024-03-01T02:48:12.796Z,941.15
2024-03-01T02:49:12.745Z,941.13
2024-03-01T02:50:12.695Z,941.14
2024-03-01T02:51:12.677Z,941.15
2024-03-01T02:52:12.808Z,941.14
2024-03-01T02:53:12.765Z,941.13
2024-03-01T02:54:12.659Z,941.12
2024-03-01T02:55:12.695Z,941.16
2024-03-01T02:56:12.634Z,941.08
2024-03-01T02:57:12.625Z,941.09
2024-03-01T02:58:12.725Z,941.08
2024-03-01T02:59:12.604Z,941.11
2024-03-01T03:00:12.623Z,941.10
2024-03-01T03:01:12.626Z,941.11
2024-03-01T03:02:12.563Z,941.10
2024-03-01T03:03:12.543Z,941.16
2024-03-01T03:04:12.562Z,941.12
2024-03-01T03:05:12.513Z,941.13
2024-03-01T03:06:12.480Z,941.09
2024-03-01T03:07:12.681Z,941.08
2024-03-01T03:08:12.469Z,941.08
2024-03-01T03:09:12.485Z,941.07
2024-03-01T03:10:12.498Z,941.08
2024-03-01T03:11:12.461Z,941.07
2024-03-01T03:12:12.437Z,941.08
2024-03-01T03:13:12.469Z,941.13
2024-03-01T03:14:12.473Z,941.16
2024-03-01T03:15:12.385Z,941.11
2024-03-01T03:16:12.561Z,941.13
2024-03-01T03:17:12.343Z,941.19
2024-03-01T03:18:12.361Z,941.19
2024-03-01T03:19:12.376Z,941.20
2024-03-01T03:20:12.421Z,941.20
2024-03-01T03:21:12.303Z,941.21
2024-03-01T03:22:12.401Z,941.21
2024-03-01T03:23:12.269Z,941.24
2024-03-01T03:24:12.258Z,941.22
2024-03-01T03:25:12.258Z,941.15
2024-03-01T03:26:12.227Z,941.15
2024-03-01T03:27:12.233Z,941.13
2024-03-01T03:28:12.299Z,941.15
2024-03-01T03:29:12.222Z,941.12
2024-03-01T03:30:12.165Z,941.14
2024-03-01T03:31:12.244Z,941.11
2024-03-01T03:32:12.138Z,941.11
2024-03-01T03:33:12.208Z,941.08
2024-03-01T03:34:12.183Z,941.07
2024-03-01T03:35:12.212Z,941.13
2024-03-01T03:36:12.097Z,941.14
2024-03-01T03:37:12.298Z,941.16
2024-03-01T03:38:12.065Z,941.12
2024-03-01T03:39:12.172Z,941.15
2024-03-01T03:40:12.041Z,941.14
2024-03-01T03:41:12.038Z,941.08
2024-03-01T03:42:12.007Z,941.12
2024-03-01T03:43:12.050Z,941.13
2024-03-01T03:44:12.090Z,941.11
2024-03-01T03:45:12.005Z,941.13
2024-03-01T03:46:12.019Z,941.11
2024-03-01T03:47:11.965Z,941.09
2024-03-01T03:48:11.978Z,941.08
2024-03-01T03:49:12.124Z,941.08
2024-03-01T03:50:11.944Z,941.08
2024-03-01T03:51:11.928Z,941.10
2024-03-01T03:52:11.880Z,941.14
2024-03-01T03:53:12.552Z,941.14
2024-03-01T03:54:11.887Z,941.14
2024-03-01T03:55:11.973Z,941.10
2024-03-01T03:56:11.824Z,941.12
2024-03-01T03:57:11.909Z,941.17
2024-03-01T03:58:11.830Z,941.16
2024-03-01T03:59:11.835Z,941.16
2024-03-01T04:00:11.904Z,941.17
2024-03-01T04:01:11.850Z,941.17
2024-03-01T04:02:11.944Z,941.13
2024-03-01T04:03:11.742Z,941.23
2024-03-01T04:04:11.804Z,941.17
2024-03-01T04:05:11.799Z,941.17
2024-03-01T04:06:11.728Z,941.18
2024-03-01T04:07:11.697Z,941.18
2024-03-01T04:08:11.767Z,941.19
2024-03-01T04:09:11.668Z,941.23
2024-03-01T04:10:11.718Z,941.27
2024-03-01T04:11:11.738Z,941.25
2024-03-01T04:12:11.612Z,941.25
2024-03-01T04:13:11.626Z,941.21
2024-03-01T04:14:11.629Z,941.25
2024-03-01T04:15:11.620Z,941.25
2024-03-01T04:16:11.690Z,941.25
2024-03-01T04:17:11.554Z,941.26
2024-03-01T04:18:11.585Z,941.28
2024-03-01T04:19:11.548Z,941.31
2024-03-01T04:20:11.508Z,941.31
2024-03-01T04:21:11.625Z,941.32
2024-03-01T04:22:11.522Z,941.36
2024-03-01T04:23:11.491Z,941.34
2024-03-01T04:24:11.462Z,941.36
2024-03-01T04:25:11.524Z,941.37
2024-03-01T04:26:11.428Z,941.39
2024-03-01T04:27:11.441Z,941.40
2024-03-01T04:28:11.460Z,941.43
2024-03-01T04:29:11.425Z,941.39
2024-03-01T04:30:11.413Z,941.39
2024-03-01T04:31:11.437Z,941.40
2024-03-01T04:32:11.362Z,941.43
2024-03-01T04:33:11.426Z,941.43
2024-03-01T04:34:11.372Z,941.41
2024-03-01T04:35:11.362Z,941.44
2024-03-01T04:36:11.305Z,941.47
2024-03-01T04:37:11.321Z,941.44
2024-03-01T04:38:11.292Z,941.46
2024-03-01T04:39:11.272Z,941.42
2024-03-01T04:40:11.311Z,941.46
2024-03-01T04:41:11.308Z,941.52
2024-03-01T04:42:11.229Z,941.50
2024-03-01T04:43:11.243Z,941.51
2024-03-01T04:44:11.202Z,941.52
2024-03-01T04:45:11.224Z,941.54
2024-03-01T04:46:11.231Z,941.54
2024-03-01T04:47:11.165Z,941.57
2024-03-01T04:48:11.178Z,941.55
2024-03-01T04:49:11.148Z,941.61
2024-03-01T04:50:11.161Z,941.60
2024-03-01T04:51:11.118Z,941.59
2024-03-01T04:52:11.106Z,941.61
2024-03-01T04:53:11.081Z,941.58
2024-03-01T04:54:11.061Z,941.58
2024-03-01T04:55:11.248Z,941.58
2024-03-01T04:56:11.065Z,941.60
2024-03-01T04:57:11.142Z,941.56
2024-03-01T04:58:11.090Z,941.57
2024-03-01T04:59:12.693Z,941.57
2024-03-01T05:00:10.989Z,941.57
2024-03-01T05:01:11.038Z,941.60
2024-03-01T05:02:11.070Z,941.57
2024-03-01T05:03:10.956Z,941.59
2024-03-01T05:04:11.038Z,941.60
2024-03-01T05:05:10.941Z,941.61
2024-03-01T05:06:10.902Z,941.64
2024-03-01T05:07:10.945Z,941.67
2024-03-01T05:08:10.930Z,941.68
2024-03-01T05:09:10.927Z,941.67
2024-03-01T05:10:11.240Z,941.68
2024-03-01T05:11:11.018Z,941.75
2024-03-01T05:12:10.825Z,941.75
2024-03-01T05:13:10.845Z,941.75
2024-03-01T05:14:10.795Z,941.81
2024-03-01T05:15:10.861Z,941.83
2024-03-01T05:16:10.919Z,941.83
2024-03-01T05:17:10.788Z,941.85
2024-03-01T05:18:10.795Z,941.82
2024-03-01T05:19:10.774Z,941.89
2024-03-01T05:20:10.748Z,941.92
2024-03-01T05:21:10.833Z,941.89
2024-03-01T05:22:10.720Z,941.93
2024-03-01T05:23:10.698Z,941.91
2024-03-01T05:24:10.727Z,941.94
2024-03-01T05:25:10.738Z,941.95
2024-03-01T05:26:10.640Z,942.02
2024-03-01T05:27:10.646Z,942.01
2024-03-01T05:28:10.759Z,942.02
2024-03-01T05:29:10.622Z,942.05
2024-03-01T05:30:10.593Z,942.13
2024-03-01T05:31:19.077Z,942.13
2024-03-01T05:32:10.683Z,942.20
2024-03-01T05:33:11.009Z,942.24
2024-03-01T05:34:10.567Z,942.24
2024-03-01T05:35:10.542Z,942.29
2024-03-01T05:36:10.512Z,942.30
2024-03-01T05:37:10.612Z,942.30
2024-03-01T05:38:10.486Z,942.33
2024-03-01T05:39:10.479Z,942.33
2024-03-01T05:40:10.517Z,942.34
2024-03-01T05:41:10.447Z,942.34
2024-03-01T05:42:10.435Z,942.34
2024-03-01T05:43:10.491Z,942.37
2024-03-01T05:44:10.409Z,942.33
2024-03-01T05:45:10.446Z,942.32
2024-03-01T05:46:10.413Z,942.33
2024-03-01T05:47:10.526Z,942.34
2024-03-01T05:48:10.419Z,942.28
2024-03-01T05:49:10.374Z,942.33
2024-03-01T05:50:10.395Z,942.30
2024-03-01T05:51:10.340Z,942.29
2024-03-01T05:52:10.405Z,942.29
2024-03-01T05:53:10.301Z,942.25
2024-03-01T05:54:10.291Z,942.30
2024-03-01T05:55:10.290Z,942.33
2024-03-01T05:56:10.330Z,942.33
2024-03-01T05:57:10.283Z,942.28
2024-03-01T05:58:10.402Z,942.33
2024-03-01T05:59:10.222Z,942.34
2024-03-01T06:00:10.209Z,942.41
2024-03-01T06:01:10.284Z,942.42
2024-03-01T06:02:10.262Z,942.44
2024-03-01T06:03:10.624Z,942.44
2024-03-01T06:04:10.296Z,942.46
2024-03-01T06:05:10.140Z,942.49
2024-03-01T06:06:10.113Z,942.50
2024-03-01T06:07:10.143Z,942.52
2024-03-01T06:08:10.117Z,942.51
2024-03-01T06:09:10.093Z,942.51
2024-03-01T06:10:10.142Z,942.53
2024-03-01T06:11:10.123Z,942.58
2024-03-01T06:12:10.071Z,942.56
2024-03-01T06:13:10.093Z,942.63
2024-03-01T06:14:10.068Z,942.59
2024-03-01T06:15:10.013Z,942.65
2024-03-01T06:16:10.525Z,942.71
2024-03-01T06:17:09.980Z,942.75
2024-03-01T06:18:09.988Z,942.79
2024-03-01T06:19:10.003Z,942.77
2024-03-01T06:20:09.933Z,942.78
2024-03-01T06:21:09.978Z,942.77
2024-03-01T06:22:09.949Z,942.84
2024-03-01T06:23:09.971Z,942.83
2024-03-01T06:24:09.907Z,942.89
2024-03-01T06:25:10.185Z,942.84
2024-03-01T06:26:09.872Z,942.87
2024-03-01T06:27:09.847Z,942.92
2024-03-01T06:28:09.831Z,942.94
2024-03-01T06:29:09.878Z,942.95
2024-03-01T06:30:09.803Z,942.91
2024-03-01T06:31:09.850Z,942.95
2024-03-01T06:32:09.785Z,942.93
2024-03-01T06:33:09.825Z,942.92
2024-03-01T06:34:09.838Z,942.92
2024-03-01T06:35:09.777Z,942.94
2024-03-01T06:36:09.719Z,942.90
2024-03-01T06:37:09.801Z,942.93
2024-03-01T06:38:09.753Z,942.93
2024-03-01T06:39:09.683Z,942.94
2024-03-01T06:40:09.742Z,942.93
2024-03-01T06:41:09.711Z,942.96
2024-03-01T06:42:09.691Z,942.99
2024-03-01T06:43:09.784Z,943.00
2024-03-01T06:44:09.635Z,942.99
2024-03-01T06:45:09.608Z,943.09
2024-03-01T06:46:09.658Z,943.10
2024-03-01T06:47:15.285Z,943.08
2024-03-01T06:48:10.934Z,943.12
2024-03-01T06:49:09.560Z,943.13
2024-03-01T06:50:09.565Z,943.16
2024-03-01T06:51:09.602Z,943.17
2024-03-01T06:52:09.592Z,943.16
2024-03-01T06:53:09.536Z,943.17
2024-03-01T06:54:09.561Z,943.18
2024-03-01T06:55:09.526Z,943.23
2024-03-01T06:56:09.483Z,943.25
2024-03-01T06:57:09.504Z,943.24
2024-03-01T06:58:09.492Z,943.24
2024-03-01T06:59:09.470Z,943.29
2024-03-01T07:00:09.461Z,943.29
2024-03-01T07:01:11.209Z,943.26
2024-03-01T07:02:09.461Z,943.22
2024-03-01T07:03:09.372Z,943.18
2024-03-01T07:04:09.415Z,943.18
2024-03-01T07:05:09.371Z,943.19
2024-03-01T07:06:09.352Z,943.19
2024-03-01T07:07:09.348Z,943.27
2024-03-01T07:08:09.324Z,943.30
2024-03-01T07:09:09.316Z,943.27
2024-03-01T07:10:09.326Z,943.27
2024-03-01T07:11:09.385Z,943.27
2024-03-01T07:12:09.266Z,943.29
2024-03-01T07:13:09.283Z,943.27
2024-03-01T07:14:09.239Z,943.31
2024-03-01T07:15:09.277Z,943.35
2024-03-01T07:16:09.232Z,943.33
2024-03-01T07:17:09.216Z,943.34
2024-03-01T07:18:09.220Z,943.34
2024-03-01T07:19:09.264Z,943.32
2024-03-01T07:20:09.201Z,943.27
2024-03-01T07:21:09.149Z,943.29
2024-03-01T07:22:09.253Z,943.30
2024-03-01T07:23:09.102Z,943.26
2024-03-01T07:24:09.146Z,943.29
2024-03-01T07:25:09.148Z,943.29
2024-03-01T07:26:09.080Z,943.34
2024-03-01T07:27:09.082Z,943.34
2024-03-01T07:28:09.074Z,943.37
2024-03-01T07:29:09.079Z,943.34
2024-03-01T07:30:09.540Z,943.30
2024-03-01T07:31:09.092Z,943.27
2024-03-01T07:32:08.996Z,943.29
2024-03-01T07:33:09.102Z,943.28
2024-03-01T07:34:09.050Z,943.28
2024-03-01T07:35:08.976Z,943.31
2024-03-01T07:36:08.988Z,943.29
2024-03-01T07:37:08.945Z,943.28
2024-03-01T07:38:08.925Z,943.36
2024-03-01T07:39:08.898Z,943.37
2024-03-01T07:40:08.963Z,943.39
2024-03-01T07:41:08.869Z,943.40
2024-03-01T07:42:08.890Z,943.41
2024-03-01T07:43:08.906Z,943.38
2024-03-01T07:44:08.868Z,943.41
2024-03-01T07:45:08.850Z,943.37
2024-03-01T07:46:08.839Z,943.37
2024-03-01T07:47:08.837Z,943.42
2024-03-01T07:48:08.848Z,943.42
2024-03-01T07:49:08.800Z,943.42
2024-03-01T07:50:08.816Z,943.41
2024-03-01T07:51:08.759Z,943.42
2024-03-01T07:52:08.752Z,943.43
2024-03-01T07:53:08.770Z,943.43
2024-03-01T07:54:08.714Z,943.49
2024-03-01T07:55:08.773Z,943.48
2024-03-01T07:56:08.696Z,943.49
2024-03-01T07:57:08.666Z,943.47
2024-03-01T07:58:08.685Z,943.42
2024-03-01T07:59:08.692Z,943.46
2024-03-01T08:00:09.623Z,943.44
2024-03-01T08:01:08.753Z,943.50
2024-03-01T08:02:08.654Z,943.47
2024-03-01T08:03:08.582Z,943.43
2024-03-01T08:04:08.757Z,943.45
2024-03-01T08:05:08.559Z,943.40
2024-03-01T08:06:08.599Z,943.40
2024-03-01T08:07:08.564Z,943.38
2024-03-01T08:08:08.514Z,943.43
2024-03-01T08:09:08.521Z,943.42
2024-03-01T08:10:08.563Z,943.40
2024-03-01T08:11:08.593Z,943.45
2024-03-01T08:12:08.459Z,943.50
2024-03-01T08:13:08.510Z,943.50
2024-03-01T08:14:08.468Z,943.52
2024-03-01T08:15:08.424Z,943.55
2024-03-01T08:16:08.491Z,943.59
2024-03-01T08:17:08.422Z,943.56
2024-03-01T08:18:08.445Z,943.57
2024-03-01T08:19:08.453Z,943.58
2024-03-01T08:20:08.365Z,943.57
2024-03-01T08:21:08.349Z,943.57
2024-03-01T08:22:09.124Z,943.55
2024-03-01T08:23:08.345Z,943.60
2024-03-01T08:24:08.311Z,943.57
2024-03-01T08:25:08.325Z,943.63
2024-03-01T08:26:08.298Z,943.64
2024-03-01T08:27:08.269Z,943.67
2024-03-01T08:28:08.332Z,943.72
2024-03-01T08:29:08.260Z,943.69
2024-03-01T08:30:08.244Z,943.68
2024-03-01T08:31:08.258Z,943.67
2024-03-01T08:32:08.286Z,943.65
2024-03-01T08:33:08.214Z,943.65
2024-03-01T08:34:08.246Z,943.63
2024-03-01T08:35:08.214Z,943.66
2024-03-01T08:36:08.168Z,943.66
2024-03-01T08:37:08.156Z,943.62
2024-03-01T08:38:08.163Z,943.66
2024-03-01T08:39:08.113Z,943.70
2024-03-01T08:40:08.117Z,943.68
2024-03-01T08:41:08.071Z,943.71
2024-03-01T08:42:08.100Z,943.71
2024-03-01T08:43:08.096Z,943.70
2024-03-01T08:44:08.069Z,943.74
2024-03-01T08:45:08.040Z,943.68
2024-03-01T08:46:08.042Z,943.68
2024-03-01T08:47:08.032Z,943.69
2024-03-01T08:48:08.031Z,943.67
2024-03-01T08:49:08.013Z,943.69
2024-03-01T08:50:07.993Z,943.65
2024-03-01T08:51:07.953Z,943.69
2024-03-01T08:52:07.964Z,943.67
2024-03-01T08:53:07.926Z,943.69
2024-03-01T08:54:07.922Z,943.74
2024-03-01T08:55:07.911Z,943.75
2024-03-01T08:56:07.888Z,943.78
2024-03-01T08:57:07.888Z,943.78
2024-03-01T08:58:07.868Z,943.71
2024-03-01T08:59:07.846Z,943.72
2024-03-01T09:00:07.860Z,943.67
2024-03-01T09:01:07.977Z,943.64
2024-03-01T09:02:07.833Z,943.67
2024-03-01T09:03:07.835Z,943.68
2024-03-01T09:04:10.414Z,943.70
2024-03-01T09:05:07.901Z,943.65
2024-03-01T09:06:07.762Z,943.69
2024-03-01T09:07:07.730Z,943.71
2024-03-01T09:08:07.778Z,943.70
2024-03-01T09:09:07.747Z,943.67
2024-03-01T09:10:07.735Z,943.62
2024-03-01T09:11:07.709Z,943.66
2024-03-01T09:12:07.699Z,943.69
2024-03-01T09:13:07.712Z,943.59
2024-03-01T09:14:07.685Z,943.58
2024-03-01T09:15:07.648Z,943.56
2024-03-01T09:16:07.685Z,943.56
2024-03-01T09:17:07.621Z,943.54
2024-03-01T09:18:07.612Z,943.55
2024-03-01T09:19:07.674Z,943.53
2024-03-01T09:20:07.587Z,943.49
2024-03-01T09:21:07.555Z,943.51
2024-03-01T09:22:07.578Z,943.53
2024-03-01T09:23:07.532Z,943.50
2024-03-01T09:24:07.576Z,943.49
2024-03-01T09:25:07.526Z,943.54
2024-03-01T09:26:07.500Z,943.50
2024-03-01T09:27:07.485Z,943.56
2024-03-01T09:28:07.487Z,943.57
2024-03-01T09:29:07.460Z,943.57
2024-03-01T09:30:07.480Z,943.56
2024-03-01T09:31:07.419Z,943.52
2024-03-01T09:32:07.419Z,943.55
2024-03-01T09:33:07.455Z,943.51
2024-03-01T09:34:07.482Z,943.47
2024-03-01T09:35:07.387Z,943.48
2024-03-01T09:36:07.414Z,943.51
2024-03-01T09:37:07.371Z,943.51
2024-03-01T09:38:07.352Z,943.56
2024-03-01T09:39:07.316Z,943.55
2024-03-01T09:40:07.388Z,943.54
2024-03-01T09:41:07.307Z,943.53
2024-03-01T09:42:07.284Z,943.53
2024-03-01T09:43:07.320Z,943.48
2024-03-01T09:44:07.266Z,943.41
2024-03-01T09:45:07.271Z,943.49
2024-03-01T09:46:07.269Z,943.40
2024-03-01T09:47:07.253Z,943.42
2024-03-01T09:48:07.256Z,943.42
2024-03-01T09:49:07.237Z,943.41
2024-03-01T09:50:07.200Z,943.44
2024-03-01T09:51:07.165Z,943.39
2024-03-01T09:52:07.197Z,943.41
2024-03-01T09:53:07.138Z,943.42
2024-03-01T09:54:07.123Z,943.42
2024-03-01T09:55:07.156Z,943.41
2024-03-01T09:56:07.144Z,943.39
2024-03-01T09:57:07.067Z,943.36
2024-03-01T09:58:07.081Z,943.40
2024-03-01T09:59:07.037Z,943.42
2024-03-01T10:00:09.030Z,943.43
2024-03-01T10:01:07.131Z,943.41
2024-03-01T10:02:07.123Z,943.40
2024-03-01T10:03:07.023Z,943.44
2024-03-01T10:04:07.049Z,943.40
2024-03-01T10:05:06.982Z,943.40
2024-03-01T10:06:10.159Z,943.44
2024-03-01T10:07:07.010Z,943.41
2024-03-01T10:08:06.938Z,943.46
2024-03-01T10:09:06.905Z,943.43
2024-03-01T10:10:06.938Z,943.45
2024-03-01T10:11:06.943Z,943.44
2024-03-01T10:12:06.879Z,943.45
2024-03-01T10:13:06.908Z,943.40
2024-03-01T10:14:06.867Z,943.38
2024-03-01T10:15:06.834Z,943.31
2024-03-01T10:16:06.851Z,943.29
2024-03-01T10:17:07.022Z,943.30
2024-03-01T10:18:06.849Z,943.31
2024-03-01T10:19:06.818Z,943.28
2024-03-01T10:20:06.821Z,943.31
2024-03-01T10:21:06.745Z,943.29
2024-03-01T10:22:06.781Z,943.30
2024-03-01T10:23:06.854Z,943.34
2024-03-01T10:24:06.737Z,943.31
2024-03-01T10:25:06.826Z,943.34
2024-03-01T10:26:06.758Z,943.32
2024-03-01T10:27:06.678Z,943.31
2024-03-01T10:28:06.741Z,943.33
2024-03-01T10:29:06.701Z,943.35
2024-03-01T10:30:06.807Z,943.34
2024-03-01T10:31:06.684Z,943.32
2024-03-01T10:32:06.752Z,943.32
2024-03-01T10:33:06.758Z,943.31
2024-03-01T10:34:06.668Z,943.37
2024-03-01T10:35:06.584Z,943.35
2024-03-01T10:36:06.584Z,943.35
2024-03-01T10:37:06.594Z,943.37
2024-03-01T10:38:06.579Z,943.34
2024-03-01T10:39:06.516Z,943.35
2024-03-01T10:40:06.556Z,943.32
2024-03-01T10:41:11.821Z,943.30
2024-03-01T10:42:06.496Z,943.33
2024-03-01T10:43:06.570Z,943.28
2024-03-01T10:44:06.484Z,943.28
2024-03-01T10:45:06.487Z,943.28
2024-03-01T10:46:06.476Z,943.26
2024-03-01T10:47:08.748Z,943.28
2024-03-01T10:48:06.426Z,943.33
2024-03-01T10:49:06.543Z,943.32
2024-03-01T10:50:06.433Z,943.30
2024-03-01T10:51:06.390Z,943.29
2024-03-01T10:52:06.378Z,943.27
2024-03-01T10:53:06.359Z,943.24
2024-03-01T10:54:06.329Z,943.24
2024-03-01T10:55:06.374Z,943.24
2024-03-01T10:56:06.357Z,943.21
2024-03-01T10:57:06.276Z,943.23
2024-03-01T10:58:06.313Z,943.22
2024-03-01T10:59:06.345Z,943.28
2024-03-01T11:00:06.241Z,943.26
2024-03-01T11:01:06.340Z,943.27
2024-03-01T11:02:06.267Z,943.31
2024-03-01T11:03:06.223Z,943.26
2024-03-01T11:04:06.272Z,943.26
2024-03-01T11:05:06.270Z,943.25
2024-03-01T11:06:06.142Z,943.19
2024-03-01T11:07:06.166Z,943.20
2024-03-01T11:08:06.135Z,943.20
2024-03-01T11:09:06.138Z,943.22
2024-03-01T11:10:06.192Z,943.19
2024-03-01T11:11:06.179Z,943.15
2024-03-01T11:12:06.065Z,943.17
2024-03-01T11:13:06.117Z,943.16
2024-03-01T11:14:06.122Z,943.16
2024-03-01T11:15:06.032Z,943.18
2024-03-01T11:16:06.055Z,943.17
2024-03-01T11:17:06.009Z,943.16
2024-03-01T11:18:08.207Z,943.15
2024-03-01T11:19:06.028Z,943.15
2024-03-01T11:20:06.000Z,943.17
2024-03-01T11:21:05.953Z,943.18
2024-03-01T11:22:05.958Z,943.15
2024-03-01T11:23:05.928Z,943.13
2024-03-01T11:24:05.909Z,943.13
2024-03-01T11:25:05.964Z,943.16
2024-03-01T11:26:05.912Z,943.11
2024-03-01T11:27:05.919Z,943.11
2024-03-01T11:28:05.873Z,943.09
2024-03-01T11:29:05.862Z,943.06
2024-03-01T11:30:05.828Z,943.02
2024-03-01T11:31:05.897Z,943.01
2024-03-01T11:32:05.813Z,943.06
2024-03-01T11:33:05.807Z,942.97
2024-03-01T11:34:05.790Z,942.99
2024-03-01T11:35:05.780Z,942.97
2024-03-01T11:36:05.739Z,942.94
2024-03-01T11:37:05.819Z,942.96
2024-03-01T11:38:05.737Z,942.96
2024-03-01T11:39:05.714Z,942.93
2024-03-01T11:40:05.764Z,942.92
2024-03-01T11:41:05.695Z,942.93
2024-03-01T11:42:05.678Z,942.95
2024-03-01T11:43:05.751Z,942.88
2024-03-01T11:44:05.632Z,942.85
2024-03-01T11:45:05.637Z,942.85
2024-03-01T11:46:05.664Z,942.85
2024-03-01T11:47:05.608Z,942.85
2024-03-01T11:48:05.653Z,942.86
2024-03-01T11:49:05.603Z,942.84
2024-03-01T11:50:05.561Z,942.83
2024-03-01T11:51:05.554Z,942.83
2024-03-01T11:52:05.560Z,942.81
2024-03-01T11:53:05.527Z,942.81
2024-03-01T11:54:05.537Z,942.81
2024-03-01T11:55:05.523Z,942.77
2024-03-01T11:56:05.490Z,942.82
2024-03-01T11:57:05.578Z,942.81
2024-03-01T11:58:05.498Z,942.78
2024-03-01T11:59:05.440Z,942.80
2024-03-01T12:00:06.161Z,942.77
2024-03-01T12:01:05.655Z,942.78
2024-03-01T12:02:05.415Z,942.75
2024-03-01T12:03:05.389Z,942.75
2024-03-01T12:04:05.417Z,942.74
2024-03-01T12:05:05.395Z,942.75
2024-03-01T12:06:05.373Z,942.73
2024-03-01T12:07:05.353Z,942.77
2024-03-01T12:08:05.304Z,942.71
2024-03-01T12:09:05.365Z,942.74
2024-03-01T12:10:05.332Z,942.70
2024-03-01T12:11:05.341Z,942.68
2024-03-01T12:12:05.257Z,942.73
2024-03-01T12:13:05.301Z,942.71
2024-03-01T12:14:05.276Z,942.79
2024-03-01T12:15:05.218Z,942.76
2024-03-01T12:16:05.249Z,942.73
2024-03-01T12:17:05.225Z,942.73
2024-03-01T12:18:05.260Z,942.75
2024-03-01T12:19:05.228Z,942.69
2024-03-01T12:20:05.188Z,942.70
2024-03-01T12:21:05.149Z,942.70
2024-03-01T12:22:05.191Z,942.62
2024-03-01T12:23:05.183Z,942.62
2024-03-01T12:24:05.123Z,942.66
2024-03-01T12:25:05.161Z,942.60
2024-03-01T12:26:05.109Z,942.64
2024-03-01T12:27:05.070Z,942.58
2024-03-01T12:28:05.116Z,942.60
2024-03-01T12:29:05.050Z,942.58